createdAt,value
2017-07-21T00:00:21.113Z,95.1
2017-07-21T00:01:28.890Z,94.8
2017-07-21T00:02:36.368Z,94.4
2017-07-21T00:03:43.855Z,94.1
2017-07-21T00:04:51.340Z,94.8
2017-07-21T00:05:58.488Z,94.3
2017-07-21T00:07:06.074Z,95
2017-07-21T00:08:13.565Z,94.5
2017-07-21T00:09:21.046Z,95.1
2017-07-21T00:10:28.518Z,94.1
2017-07-21T00:11:36.009Z,95.1
2017-07-21T00:12:43.589Z,94.3
2017-07-21T00:13:51.066Z,94.9
2017-07-21T00:14:58.563Z,96.1
2017-07-21T00:16:06.039Z,95.1
2017-07-21T00:17:13.518Z,94.2
2017-07-21T00:18:21.596Z,95.7
2017-07-21T00:19:29.077Z,95.8
2017-07-21T00:20:36.556Z,96.8
2017-07-21T00:21:44.042Z,96.7
2017-07-21T00:22:51.517Z,95.1
2017-07-21T00:23:59.297Z,96.2
2017-07-21T00:25:06.796Z,95.9
2017-07-21T00:26:14.280Z,96.1
2017-07-21T00:27:21.755Z,96
2017-07-21T00:28:29.237Z,95.6
2017-07-21T00:29:36.486Z,95.1
2017-07-21T00:30:43.654Z,95.7
2017-07-21T00:31:51.136Z,96.1
2017-07-21T00:32:58.615Z,95.4
2017-07-21T00:34:06.088Z,95.1
2017-07-21T00:35:13.867Z,94.2
2017-07-21T00:36:21.347Z,94.5
2017-07-21T00:37:28.828Z,94.8
2017-07-21T00:38:36.306Z,93.8
2017-07-21T00:39:43.783Z,95.6
2017-07-21T00:40:51.362Z,95.5
2017-07-21T00:41:58.839Z,94.9
2017-07-21T00:43:06.316Z,94.9
2017-07-21T00:44:13.800Z,95.9
2017-07-21T00:45:20.953Z,95
2017-07-21T00:46:28.683Z,95.2
2017-07-21T00:47:36.165Z,94.7
2017-07-21T00:48:43.637Z,95.5
2017-07-21T00:49:51.117Z,95.4
2017-07-21T00:50:58.602Z,95
2017-07-21T00:52:06.382Z,95
2017-07-21T00:53:13.876Z,95.2
2017-07-21T00:54:21.353Z,94.6
2017-07-21T00:55:28.499Z,95.5
2017-07-21T00:56:35.974Z,96.7
2017-07-21T00:57:43.763Z,97
2017-07-21T00:58:51.245Z,96.3
2017-07-21T00:59:58.721Z,95.9
2017-07-21T01:01:05.877Z,95
2017-07-21T01:02:13.350Z,95.2
2017-07-21T01:03:21.132Z,96.2
2017-07-21T01:04:28.615Z,94.6
2017-07-21T01:05:36.091Z,95.2
2017-07-21T01:06:43.245Z,95.4
2017-07-21T01:07:50.727Z,94.3
2017-07-21T01:08:58.312Z,95.3
2017-07-21T01:10:05.796Z,95.4
2017-07-21T01:11:13.335Z,95.2
2017-07-21T01:12:20.815Z,95
2017-07-21T01:13:28.299Z,95.4
2017-07-21T01:14:36.022Z,94.1
2017-07-21T01:15:43.173Z,94.5
2017-07-21T01:16:50.322Z,94.4
2017-07-21T01:17:57.807Z,96.3
2017-07-21T01:19:05.313Z,96.5
2017-07-21T01:20:12.561Z,95.7
2017-07-21T01:21:20.042Z,95.5
2017-07-21T01:22:27.187Z,95
2017-07-21T01:23:34.668Z,94.6
2017-07-21T01:24:42.144Z,94.8
2017-07-21T01:25:49.728Z,96
2017-07-21T01:26:57.209Z,95.5
2017-07-21T01:28:04.704Z,95.8
2017-07-21T01:29:12.191Z,95.3
2017-07-21T01:30:19.340Z,94.9
2017-07-21T01:31:27.115Z,95
2017-07-21T01:32:34.593Z,95.1
2017-07-21T01:33:42.072Z,95
2017-07-21T01:34:49.579Z,94.6
2017-07-21T01:35:57.062Z,95
2017-07-21T01:37:04.644Z,93.9
2017-07-21T01:38:12.129Z,96.2
2017-07-21T01:39:19.617Z,96.2
2017-07-21T01:40:27.098Z,94.8
2017-07-21T01:41:34.571Z,94.6
2017-07-21T01:42:42.329Z,96.2
2017-07-21T01:43:49.809Z,96.8
2017-07-21T01:44:56.958Z,96.8
2017-07-21T01:46:04.433Z,95.7
2017-07-21T01:47:11.909Z,96.3
2017-07-21T01:48:19.685Z,96.4
2017-07-21T01:49:27.162Z,96.1
2017-07-21T01:50:34.640Z,95.7
2017-07-21T01:51:42.117Z,95.9
2017-07-21T01:52:49.606Z,96.2
2017-07-21T01:53:57.187Z,96.8
2017-07-21T01:55:04.672Z,96.7
2017-07-21T01:56:12.158Z,97
2017-07-21T01:57:19.639Z,96.3
2017-07-21T01:58:27.117Z,94.6
2017-07-21T01:59:34.516Z,95.8
2017-07-21T02:00:41.990Z,95.4
2017-07-21T02:01:49.141Z,96.7
2017-07-21T02:02:56.626Z,96.9
2017-07-21T02:04:04.096Z,95.4
2017-07-21T02:05:11.880Z,96.1
2017-07-21T02:06:19.359Z,96.6
2017-07-21T02:07:26.508Z,98.3
2017-07-21T02:08:33.983Z,98.8
2017-07-21T02:09:41.460Z,98.5
2017-07-21T02:10:49.041Z,98
2017-07-21T02:11:56.517Z,97.8
2017-07-21T02:13:03.668Z,98.5
2017-07-21T02:14:11.145Z,97.6
2017-07-21T02:15:18.629Z,97.3
2017-07-21T02:16:26.357Z,97.4
2017-07-21T02:17:33.833Z,97
2017-07-21T02:18:41.306Z,95.9
2017-07-21T02:19:48.794Z,96.9
2017-07-21T02:20:55.938Z,97.5
2017-07-21T02:22:03.714Z,96.1
2017-07-21T02:23:11.190Z,96.3
2017-07-21T02:24:18.669Z,96.3
2017-07-21T02:25:26.154Z,96.5
2017-07-21T02:26:33.635Z,95.4
2017-07-21T02:27:41.417Z,95.2
2017-07-21T02:28:48.889Z,96.5
2017-07-21T02:29:56.371Z,96.7
2017-07-21T02:31:03.857Z,95.3
2017-07-21T02:32:11.343Z,95.7
2017-07-21T02:33:18.731Z,96.1
2017-07-21T02:34:26.212Z,96.8
2017-07-21T02:35:33.688Z,97
2017-07-21T02:36:41.164Z,96.9
2017-07-21T02:37:48.643Z,96.8
2017-07-21T02:38:56.423Z,97.8
2017-07-21T02:40:03.895Z,96.4
2017-07-21T02:41:11.853Z,97
2017-07-21T02:42:19.333Z,97.9
2017-07-21T02:43:26.814Z,98.1
2017-07-21T02:44:34.546Z,97
2017-07-21T02:45:41.368Z,95.2
2017-07-21T02:46:48.859Z,96.1
2017-07-21T02:47:56.339Z,98.3
2017-07-21T02:49:03.816Z,97.8
2017-07-21T02:50:11.557Z,97.3
2017-07-21T02:51:19.036Z,97.9
2017-07-21T02:52:26.510Z,97.7
2017-07-21T02:53:33.994Z,96.4
2017-07-21T02:54:41.492Z,96.2
2017-07-21T02:55:49.079Z,98.2
2017-07-21T02:56:56.561Z,97.3
2017-07-21T02:58:04.042Z,97.8
2017-07-21T02:59:11.517Z,97.4
2017-07-21T03:00:18.666Z,98
2017-07-21T03:01:26.449Z,98
2017-07-21T03:02:33.944Z,97.6
2017-07-21T03:03:41.100Z,96.3
2017-07-21T03:04:48.580Z,97.6
2017-07-21T03:05:56.064Z,98.3
2017-07-21T03:07:03.845Z,98
2017-07-21T03:08:10.987Z,98.3
2017-07-21T03:09:18.467Z,98.5
2017-07-21T03:10:25.954Z,97.4
2017-07-21T03:11:33.106Z,97.9
2017-07-21T03:12:40.837Z,97.9
2017-07-21T03:13:47.981Z,98
2017-07-21T03:14:55.467Z,97
2017-07-21T03:16:04.159Z,97.4
2017-07-21T03:17:11.549Z,97.4
2017-07-21T03:18:19.119Z,97.8
2017-07-21T03:19:26.601Z,97.3
2017-07-21T03:20:33.759Z,96.7
2017-07-21T03:21:41.238Z,96.8
2017-07-21T03:22:48.717Z,97.7
2017-07-21T03:23:56.166Z,97.3
2017-07-21T03:25:03.646Z,97.8
2017-07-21T03:26:11.129Z,97.5
2017-07-21T03:27:18.599Z,96.9
2017-07-21T03:28:26.082Z,97.7
2017-07-21T03:29:33.671Z,98.1
2017-07-21T03:30:41.152Z,97.8
2017-07-21T03:31:48.625Z,96.7
2017-07-21T03:32:56.095Z,97.1
2017-07-21T03:34:03.577Z,97.3
2017-07-21T03:35:11.356Z,96.9
2017-07-21T03:36:18.838Z,97.4
2017-07-21T03:37:26.316Z,97.8
2017-07-21T03:38:33.461Z,99
2017-07-21T03:39:40.945Z,98.6
2017-07-21T03:40:48.441Z,98.2
2017-07-21T03:41:55.927Z,97.4
2017-07-21T03:43:03.411Z,98.1
2017-07-21T03:44:10.555Z,97
2017-07-21T03:45:18.030Z,96.1
2017-07-21T03:46:25.513Z,97
2017-07-21T03:47:33.012Z,97.3
2017-07-21T03:48:40.492Z,97.7
2017-07-21T03:49:47.971Z,98
2017-07-21T03:50:55.755Z,98.3
2017-07-21T03:52:03.240Z,97.9
2017-07-21T03:53:10.720Z,96.9
2017-07-21T03:54:18.206Z,97.1
2017-07-21T03:55:25.353Z,98
2017-07-21T03:56:33.293Z,97.3
2017-07-21T03:57:40.773Z,97
2017-07-21T03:58:48.254Z,96.6
2017-07-21T03:59:55.729Z,97.6
2017-07-21T04:01:02.881Z,97.4
2017-07-21T04:02:10.682Z,95.9
2017-07-21T04:03:18.162Z,95.4
2017-07-21T04:04:25.312Z,96.4
2017-07-21T04:05:34.008Z,96.3
2017-07-21T04:06:41.488Z,96.8
2017-07-21T04:07:48.974Z,97
2017-07-21T04:08:56.126Z,96.8
2017-07-21T04:10:03.292Z,96.3
2017-07-21T04:11:10.764Z,95.9
2017-07-21T04:12:18.244Z,96.9
2017-07-21T04:13:25.819Z,97.4
2017-07-21T04:14:33.298Z,97.4
2017-07-21T04:15:40.777Z,97.3
2017-07-21T04:16:48.262Z,97.2
2017-07-21T04:17:55.738Z,96.6
2017-07-21T04:19:03.519Z,94.9
2017-07-21T04:20:10.997Z,94.5
2017-07-21T04:21:18.147Z,95.5
2017-07-21T04:22:25.638Z,95.5
2017-07-21T04:23:33.117Z,96.5
2017-07-21T04:24:40.945Z,97.2
2017-07-21T04:25:48.104Z,97.8
2017-07-21T04:26:55.598Z,97.9
2017-07-21T04:28:03.075Z,98.2
2017-07-21T04:29:10.555Z,98.5
2017-07-21T04:31:25.479Z,98
2017-07-21T04:32:32.969Z,98.2
2017-07-21T04:33:40.447Z,97.7
2017-07-21T04:34:47.926Z,97.9
2017-07-21T04:35:55.703Z,97.5
2017-07-21T04:37:03.190Z,98
2017-07-21T04:38:10.673Z,97.9
2017-07-21T04:39:18.153Z,97.8
2017-07-21T04:40:25.635Z,98
2017-07-21T04:41:33.412Z,98
2017-07-21T04:42:40.889Z,98.1
2017-07-21T04:43:48.368Z,98.1
2017-07-21T04:44:55.851Z,97.9
2017-07-21T04:46:03.338Z,97.8
2017-07-21T04:47:11.165Z,98.2
2017-07-21T04:48:18.646Z,97.6
2017-07-21T04:49:26.121Z,97.4
2017-07-21T04:50:33.595Z,96.7
2017-07-21T04:51:41.078Z,96.6
2017-07-21T04:52:48.656Z,96.9
2017-07-21T04:53:56.147Z,97.8
2017-07-21T04:55:03.633Z,97.6
2017-07-21T04:56:11.111Z,98.1
2017-07-21T04:57:18.598Z,98.3
2017-07-21T04:58:25.997Z,98
2017-07-21T04:59:33.484Z,96.9
2017-07-21T05:00:40.966Z,97.1
2017-07-21T05:01:48.448Z,97.6
2017-07-21T05:02:55.938Z,97.9
2017-07-21T05:04:03.664Z,97.9
2017-07-21T05:05:11.142Z,97.8
2017-07-21T05:06:18.625Z,97.8
2017-07-21T05:07:26.104Z,97.6
2017-07-21T05:08:33.255Z,97.6
2017-07-21T05:09:40.404Z,98.3
2017-07-21T05:10:47.559Z,98
2017-07-21T05:11:55.069Z,97.9
2017-07-21T05:13:02.556Z,97.7
2017-07-21T05:14:10.038Z,97.8
2017-07-21T05:15:17.619Z,97.8
2017-07-21T05:16:25.102Z,98
2017-07-21T05:17:32.587Z,97.9
2017-07-21T05:18:40.067Z,98
2017-07-21T05:19:47.547Z,98.1
2017-07-21T05:20:55.329Z,98
2017-07-21T05:22:02.836Z,97.7
2017-07-21T05:23:10.315Z,97.8
2017-07-21T05:24:17.795Z,97.8
2017-07-21T05:25:25.270Z,97.8
2017-07-21T05:26:32.754Z,97.9
2017-07-21T05:27:39.905Z,97.5
2017-07-21T05:28:47.386Z,96.9
2017-07-21T05:29:54.867Z,98
2017-07-21T05:31:02.345Z,97.6
2017-07-21T05:32:09.928Z,97.2
2017-07-21T05:33:17.082Z,97.8
2017-07-21T05:34:24.565Z,97.5
2017-07-21T05:35:32.042Z,97.3
2017-07-21T05:36:39.529Z,97.4
2017-07-21T05:37:47.312Z,97.2
2017-07-21T05:38:54.788Z,97.4
2017-07-21T05:40:02.267Z,96.8
2017-07-21T05:41:09.751Z,96.5
2017-07-21T05:42:17.229Z,96.6
2017-07-21T05:43:24.815Z,96.7
2017-07-21T05:44:32.301Z,96.6
2017-07-21T05:45:39.451Z,96.5
2017-07-21T05:46:46.935Z,96.8
2017-07-21T05:47:54.415Z,96.5
2017-07-21T05:49:02.198Z,96.4
2017-07-21T05:50:09.365Z,96
2017-07-21T05:51:16.845Z,96
2017-07-21T05:52:24.329Z,95.6
2017-07-21T05:53:31.807Z,96
2017-07-21T05:54:39.634Z,96
2017-07-21T05:55:47.116Z,95.7
2017-07-21T05:56:54.622Z,95.9
2017-07-21T05:58:02.094Z,95.9
2017-07-21T05:59:09.243Z,95.9
2017-07-21T06:00:17.072Z,95.9
2017-07-21T06:01:24.558Z,95.6
2017-07-21T06:02:32.058Z,95.6
2017-07-21T06:03:39.551Z,95.2
2017-07-21T06:04:47.031Z,95.3
2017-07-21T06:05:54.818Z,95.5
2017-07-21T06:07:02.303Z,95.4
2017-07-21T06:08:09.460Z,95.4
2017-07-21T06:09:16.940Z,95.4
2017-07-21T06:10:24.423Z,95.9
2017-07-21T06:11:31.910Z,95.1
2017-07-21T06:12:39.388Z,95.2
2017-07-21T06:13:46.868Z,94.6
2017-07-21T06:14:54.347Z,94.5
2017-07-21T06:16:01.930Z,94.1
2017-07-21T06:17:09.414Z,94.6
2017-07-21T06:18:16.899Z,93.6
2017-07-21T06:19:24.379Z,93.6
2017-07-21T06:20:31.877Z,93.2
2017-07-21T06:21:39.457Z,92.7
2017-07-21T06:22:46.940Z,92.3
2017-07-21T06:23:54.426Z,91.6
2017-07-21T06:25:01.907Z,91.7
2017-07-21T06:26:09.409Z,92.1
2017-07-21T06:27:17.245Z,91.6
2017-07-21T06:28:24.730Z,92.3
2017-07-21T06:29:31.893Z,91.4
2017-07-21T06:30:39.372Z,91.6
2017-07-21T06:31:46.518Z,91.7
2017-07-21T06:32:54.308Z,91.3
2017-07-21T06:34:01.825Z,91.7
2017-07-21T06:35:09.306Z,92.3
2017-07-21T06:36:16.784Z,92.1
2017-07-21T06:37:24.270Z,91.5
2017-07-21T06:38:31.750Z,92
2017-07-21T06:39:39.238Z,91.2
2017-07-21T06:40:46.722Z,91.3
2017-07-21T06:41:54.205Z,91.3
2017-07-21T06:43:01.784Z,91.7
2017-07-21T06:44:09.266Z,91.9
2017-07-21T06:45:16.756Z,91
2017-07-21T06:46:24.235Z,91.4
2017-07-21T06:47:31.720Z,91.6
2017-07-21T06:48:39.299Z,91.1
2017-07-21T06:49:46.455Z,91
2017-07-21T06:50:53.936Z,91.1
2017-07-21T06:52:01.415Z,91.3
2017-07-21T06:53:08.901Z,90.8
2017-07-21T06:54:16.488Z,90.9
2017-07-21T06:55:23.639Z,90
2017-07-21T06:56:30.788Z,90.9
2017-07-21T06:57:38.272Z,90.5
2017-07-21T06:58:45.755Z,88.2
2017-07-21T06:59:53.539Z,89.3
2017-07-21T07:01:01.020Z,89.5
2017-07-21T07:02:08.174Z,87.9
2017-07-21T07:03:15.658Z,88.6
2017-07-21T07:04:23.142Z,85.1
2017-07-21T07:05:30.621Z,86.9
2017-07-21T07:06:37.777Z,88.2
2017-07-21T07:07:45.259Z,87.8
2017-07-21T07:08:52.738Z,85.4
2017-07-21T07:10:00.229Z,85.7
2017-07-21T07:11:07.687Z,85.5
2017-07-21T07:12:15.184Z,84.8
2017-07-21T07:13:22.666Z,86.8
2017-07-21T07:14:29.819Z,85.3
2017-07-21T07:15:37.633Z,87.7
2017-07-21T07:16:45.115Z,85.9
2017-07-21T07:17:52.597Z,84.7
2017-07-21T07:19:00.082Z,86.8
2017-07-21T07:20:07.569Z,89.3
2017-07-21T07:21:15.315Z,83.4
2017-07-21T07:22:22.797Z,84.8
2017-07-21T07:23:30.279Z,85.8
2017-07-21T07:24:37.760Z,83.7
2017-07-21T07:25:45.248Z,84.3
2017-07-21T07:26:52.830Z,84.1
2017-07-21T07:28:00.312Z,85.1
2017-07-21T07:29:07.467Z,84.5
2017-07-21T07:30:15.056Z,82.9
2017-07-21T07:31:21.876Z,83.3
2017-07-21T07:32:29.041Z,80.2
2017-07-21T07:33:36.522Z,84.2
2017-07-21T07:34:44.007Z,81.1
2017-07-21T07:35:51.169Z,81.7
2017-07-21T07:36:58.653Z,80.5
2017-07-21T07:38:06.241Z,82.3
2017-07-21T07:39:13.728Z,77.9
2017-07-21T07:40:21.213Z,80.3
2017-07-21T07:41:28.700Z,77.3
2017-07-21T07:42:36.183Z,79.9
2017-07-21T07:43:43.963Z,80.8
2017-07-21T07:44:51.460Z,79.7
2017-07-21T07:45:58.954Z,78.9
2017-07-21T07:47:06.451Z,75.7
2017-07-21T07:48:13.935Z,76.2
2017-07-21T07:49:21.532Z,75.5
2017-07-21T07:50:29.016Z,78.5
2017-07-21T07:51:36.178Z,75
2017-07-21T07:52:43.688Z,74
2017-07-21T07:53:51.184Z,73.5
2017-07-21T07:54:58.445Z,73.2
2017-07-21T07:56:05.924Z,77.3
2017-07-21T07:57:13.413Z,74.9
2017-07-21T07:58:20.594Z,70.4
2017-07-21T07:59:28.084Z,75.1
2017-07-21T08:00:35.869Z,71
2017-07-21T08:01:43.014Z,72.2
2017-07-21T08:02:50.501Z,71.8
2017-07-21T08:03:57.994Z,72.3
2017-07-21T08:05:05.482Z,74.8
2017-07-21T08:06:13.264Z,71.4
2017-07-21T08:07:20.744Z,68.7
2017-07-21T08:08:28.236Z,70
2017-07-21T08:09:35.730Z,71.9
2017-07-21T08:10:43.215Z,71.4
2017-07-21T08:11:50.694Z,70
2017-07-21T08:12:58.188Z,70.5
2017-07-21T08:14:05.358Z,68.2
2017-07-21T08:15:12.837Z,68.5
2017-07-21T08:16:20.336Z,67.1
2017-07-21T08:17:28.071Z,70
2017-07-21T08:18:35.250Z,71.7
2017-07-21T08:19:42.732Z,65.1
2017-07-21T08:20:50.217Z,66.1
2017-07-21T08:21:57.713Z,68.6
2017-07-21T08:23:05.496Z,62.9
2017-07-21T08:24:12.994Z,66.9
2017-07-21T08:25:20.482Z,64.8
2017-07-21T08:26:27.967Z,63.3
2017-07-21T08:27:35.455Z,66.5
2017-07-21T08:28:43.049Z,71.4
2017-07-21T08:29:50.529Z,68.2
2017-07-21T08:30:57.679Z,68.2
2017-07-21T08:32:05.173Z,61.2
2017-07-21T08:33:12.661Z,65
2017-07-21T08:34:19.820Z,61.1
2017-07-21T08:35:27.304Z,63.4
2017-07-21T08:36:34.785Z,65
2017-07-21T08:37:42.277Z,64.3
2017-07-21T08:38:50.021Z,63.6
2017-07-21T08:39:57.503Z,64.9
2017-07-21T08:41:04.997Z,61.5
2017-07-21T08:42:12.482Z,61.7
2017-07-21T08:43:19.966Z,59.2
2017-07-21T08:44:27.551Z,62.8
2017-07-21T08:46:42.154Z,63.1
2017-07-21T08:47:49.646Z,62.9
2017-07-21T08:48:57.132Z,56.7
2017-07-21T08:50:04.869Z,60
2017-07-21T08:51:12.023Z,61.6
2017-07-21T08:52:19.520Z,61.9
2017-07-21T08:53:26.671Z,59.1
2017-07-21T08:54:33.830Z,61.2
2017-07-21T08:55:41.805Z,60.3
2017-07-21T08:56:49.290Z,65.1
2017-07-21T08:57:56.787Z,57
2017-07-21T08:59:04.274Z,61.4
2017-07-21T09:00:11.430Z,64.9
2017-07-21T09:01:18.587Z,60.1
2017-07-21T09:02:26.073Z,55.2
2017-07-21T09:03:33.574Z,54.3
2017-07-21T09:04:40.721Z,57.5
2017-07-21T09:05:48.130Z,61.6
2017-07-21T09:06:55.623Z,57.5
2017-07-21T09:08:03.109Z,57.6
2017-07-21T09:09:10.279Z,55.8
2017-07-21T09:10:17.765Z,53.3
2017-07-21T09:11:25.553Z,59.3
2017-07-21T09:12:33.043Z,60.7
2017-07-21T09:13:40.531Z,55
2017-07-21T09:14:48.019Z,56.8
2017-07-21T09:15:55.506Z,58
2017-07-21T09:17:02.779Z,57.8
2017-07-21T09:18:10.272Z,58.3
2017-07-21T09:19:17.753Z,57
2017-07-21T09:20:25.243Z,60.5
2017-07-21T09:21:32.404Z,54.6
2017-07-21T09:22:40.196Z,54.1
2017-07-21T09:23:47.696Z,57.6
2017-07-21T09:24:55.192Z,55.4
2017-07-21T09:26:02.016Z,58.4
2017-07-21T09:27:09.514Z,59.9
2017-07-21T09:28:16.671Z,57.8
2017-07-21T09:29:24.162Z,53.4
2017-07-21T09:30:31.649Z,58
2017-07-21T09:31:38.813Z,56.8
2017-07-21T09:32:45.972Z,59
2017-07-21T09:33:53.775Z,56.3
2017-07-21T09:35:01.261Z,59.2
2017-07-21T09:36:08.747Z,55
2017-07-21T09:37:16.237Z,55.2
2017-07-21T09:38:23.734Z,58.2
2017-07-21T09:39:31.324Z,56.2
2017-07-21T09:40:38.816Z,61.4
2017-07-21T09:41:46.317Z,55.8
2017-07-21T09:42:54.035Z,55.1
2017-07-21T09:44:01.528Z,60.9
2017-07-21T09:45:09.267Z,58.3
2017-07-21T09:46:16.756Z,56.4
2017-07-21T09:47:23.921Z,57.6
2017-07-21T09:48:31.410Z,53.8
2017-07-21T09:49:38.900Z,52.4
2017-07-21T09:50:46.691Z,54.7
2017-07-21T09:51:53.855Z,53.6
2017-07-21T09:53:01.344Z,57.4
2017-07-21T09:54:08.836Z,54.1
2017-07-21T09:55:16.332Z,48.7
2017-07-21T09:56:23.925Z,53
2017-07-21T09:57:31.413Z,51.7
2017-07-21T09:58:38.902Z,51.6
2017-07-21T09:59:46.394Z,55.6
2017-07-21T10:00:53.884Z,49.6
2017-07-21T10:02:01.623Z,50.5
2017-07-21T10:03:08.786Z,52.5
2017-07-21T10:04:15.945Z,53.1
2017-07-21T10:05:23.100Z,53.4
2017-07-21T10:06:30.597Z,53
2017-07-21T10:07:38.088Z,52.7
2017-07-21T10:08:45.576Z,52.5
2017-07-21T10:09:53.066Z,51.2
2017-07-21T10:11:00.555Z,52.9
2017-07-21T10:12:08.043Z,51.9
2017-07-21T10:13:15.836Z,53.2
2017-07-21T10:14:23.321Z,50.8
2017-07-21T10:15:30.806Z,55
2017-07-21T10:16:37.958Z,53.1
2017-07-21T10:17:45.453Z,53.5
2017-07-21T10:18:53.036Z,53.7
2017-07-21T10:20:00.523Z,52.4
2017-07-21T10:21:07.693Z,53.2
2017-07-21T10:22:15.187Z,52.6
2017-07-21T10:23:22.366Z,54.2
2017-07-21T10:24:30.157Z,50.7
2017-07-21T10:25:36.997Z,51.2
2017-07-21T10:26:44.488Z,50.7
2017-07-21T10:27:51.985Z,49.9
2017-07-21T10:28:59.471Z,52.5
2017-07-21T10:30:06.958Z,51.1
2017-07-21T10:31:14.462Z,49.4
2017-07-21T10:32:21.952Z,51.4
2017-07-21T10:33:29.453Z,50.9
2017-07-21T10:34:36.720Z,50.7
2017-07-21T10:35:44.212Z,49.9
2017-07-21T10:36:51.701Z,50.2
2017-07-21T10:37:59.202Z,51.1
2017-07-21T10:39:06.362Z,51.2
2017-07-21T10:40:13.951Z,52.7
2017-07-21T10:41:21.444Z,53.2
2017-07-21T10:42:28.936Z,51.6
2017-07-21T10:43:36.432Z,50.1
2017-07-21T10:44:43.599Z,51.4
2017-07-21T10:45:51.393Z,47.7
2017-07-21T10:46:58.879Z,49
2017-07-21T10:48:06.371Z,46.5
2017-07-21T10:49:13.864Z,49.5
2017-07-21T10:50:21.019Z,48.7
2017-07-21T10:51:28.809Z,48.8
2017-07-21T10:52:36.325Z,46.7
2017-07-21T10:53:44.047Z,46.8
2017-07-21T10:54:51.542Z,46.2
2017-07-21T10:55:59.067Z,49.4
2017-07-21T10:57:06.565Z,48.3
2017-07-21T10:58:14.056Z,47.1
2017-07-21T10:59:21.541Z,50.7
2017-07-21T11:00:28.711Z,47.9
2017-07-21T11:01:36.174Z,45.6
2017-07-21T11:02:43.337Z,49.5
2017-07-21T11:03:50.831Z,46.9
2017-07-21T11:04:58.325Z,45.8
2017-07-21T11:06:05.811Z,46.5
2017-07-21T11:07:13.402Z,48
2017-07-21T11:08:20.891Z,44.9
2017-07-21T11:09:28.384Z,49.6
2017-07-21T11:10:35.566Z,47.8
2017-07-21T11:11:43.056Z,46.6
2017-07-21T11:12:50.802Z,45.7
2017-07-21T11:13:58.295Z,44.8
2017-07-21T11:15:05.789Z,46.5
2017-07-21T11:16:13.275Z,47.1
2017-07-21T11:17:20.771Z,44.5
2017-07-21T11:18:28.357Z,46
2017-07-21T11:19:35.856Z,46
2017-07-21T11:20:43.348Z,44.6
2017-07-21T11:21:50.842Z,47
2017-07-21T11:22:58.019Z,48.8
2017-07-21T11:24:05.520Z,47.8
2017-07-21T11:25:12.685Z,45.7
2017-07-21T11:26:20.181Z,47.7
2017-07-21T11:27:27.674Z,43.8
2017-07-21T11:28:35.163Z,45.7
2017-07-21T11:29:42.760Z,46.7
2017-07-21T11:30:49.917Z,44.3
2017-07-21T11:31:57.081Z,46.2
2017-07-21T11:33:04.243Z,48.4
2017-07-21T11:34:11.738Z,47.6
2017-07-21T11:35:18.991Z,46
2017-07-21T11:36:26.488Z,44
2017-07-21T11:37:33.988Z,48.9
2017-07-21T11:38:41.489Z,44.2
2017-07-21T11:39:48.981Z,43.5
2017-07-21T11:40:55.911Z,45.4
2017-07-21T11:42:03.408Z,47.4
2017-07-21T11:43:10.567Z,43.8
2017-07-21T11:44:17.726Z,41.1
2017-07-21T11:45:25.230Z,42.2
2017-07-21T11:46:32.830Z,43.3
2017-07-21T11:47:40.348Z,44.5
2017-07-21T11:48:47.515Z,46.3
2017-07-21T11:49:55.009Z,44.8
2017-07-21T11:51:02.493Z,46.3
2017-07-21T11:52:10.247Z,42.8
2017-07-21T11:53:17.409Z,41.5
2017-07-21T11:54:24.903Z,45.8
2017-07-21T11:55:32.402Z,44.3
2017-07-21T11:56:39.896Z,43.6
2017-07-21T11:57:47.649Z,47.2
2017-07-21T11:58:55.140Z,44.7
2017-07-21T12:00:02.304Z,47
2017-07-21T12:01:09.794Z,44.2
2017-07-21T12:02:17.313Z,44.3
2017-07-21T12:03:24.804Z,43.1
2017-07-21T12:04:32.294Z,42.9
2017-07-21T12:05:39.792Z,43.3
2017-07-21T12:06:47.310Z,40.6
2017-07-21T12:07:54.806Z,40.2
2017-07-21T12:09:02.410Z,38.3
2017-07-21T12:10:09.905Z,39.6
2017-07-21T12:11:17.406Z,42.8
2017-07-21T12:12:24.895Z,41
2017-07-21T12:13:32.063Z,41.4
2017-07-21T12:14:39.854Z,38.5
2017-07-21T12:15:47.347Z,38.8
2017-07-21T12:16:54.516Z,40.3
2017-07-21T12:18:02.016Z,38.2
2017-07-21T12:19:09.505Z,40.7
2017-07-21T12:20:17.300Z,41.2
2017-07-21T12:21:24.795Z,37.3
2017-07-21T12:22:32.285Z,42.3
2017-07-21T12:23:39.783Z,38.3
2017-07-21T12:24:47.512Z,38.7
2017-07-21T12:25:54.676Z,41.6
2017-07-21T12:27:02.171Z,40.9
2017-07-21T12:28:09.678Z,42.3
2017-07-21T12:29:17.183Z,38.9
2017-07-21T12:30:24.927Z,42.4
2017-07-21T12:31:32.415Z,39.4
2017-07-21T12:32:39.576Z,41.5
2017-07-21T12:33:47.072Z,40.9
2017-07-21T12:34:54.240Z,39.3
2017-07-21T12:36:01.661Z,40.3
2017-07-21T12:37:09.158Z,40.9
2017-07-21T12:38:16.656Z,40.9
2017-07-21T12:39:24.152Z,38.7
2017-07-21T12:40:31.317Z,39.4
2017-07-21T12:41:38.912Z,40
2017-07-21T12:42:46.096Z,38
2017-07-21T12:43:53.262Z,37.8
2017-07-21T12:45:00.756Z,39.6
2017-07-21T12:46:08.250Z,36.5
2017-07-21T12:47:15.992Z,38.6
2017-07-21T12:48:23.478Z,38.3
2017-07-21T12:49:30.970Z,39.9
2017-07-21T12:50:38.490Z,39.6
2017-07-21T12:51:45.981Z,42.6
2017-07-21T12:52:53.481Z,41.2
2017-07-21T12:54:00.973Z,42.7
2017-07-21T12:55:08.457Z,43.8
2017-07-21T12:56:15.956Z,42.3
2017-07-21T12:57:23.454Z,42.2
2017-07-21T12:58:31.046Z,41.5
2017-07-21T12:59:38.540Z,41.6
2017-07-21T13:00:46.032Z,41.9
2017-07-21T13:01:53.537Z,42.6
2017-07-21T13:03:01.031Z,43.3
2017-07-21T13:04:08.783Z,42.1
2017-07-21T13:05:16.282Z,42.2
2017-07-21T13:06:23.786Z,42.5
2017-07-21T13:07:31.277Z,41.7
2017-07-21T13:08:38.771Z,43
2017-07-21T13:09:46.279Z,42.3
2017-07-21T13:10:53.769Z,42.5
2017-07-21T13:12:00.930Z,43.2
2017-07-21T13:13:08.421Z,43.5
2017-07-21T13:14:15.912Z,42.5
2017-07-21T13:15:23.329Z,45.5
2017-07-21T13:16:30.827Z,40.1
2017-07-21T13:17:37.997Z,40.4
2017-07-21T13:18:45.165Z,40.5
2017-07-21T13:19:52.657Z,42.7
2017-07-21T13:21:00.401Z,39.8
2017-07-21T13:22:07.910Z,40.8
2017-07-21T13:23:16.217Z,40.8
2017-07-21T13:24:23.716Z,40.5
2017-07-21T13:25:30.876Z,41.3
2017-07-21T13:26:38.141Z,42.3
2017-07-21T13:27:45.326Z,42.1
2017-07-21T13:28:52.822Z,42.5
2017-07-21T13:30:00.325Z,44.8
2017-07-21T13:31:07.491Z,44.4
2017-07-21T13:32:14.985Z,45
2017-07-21T13:33:22.154Z,46.7
2017-07-21T13:34:29.314Z,48.2
2017-07-21T13:35:36.806Z,48.1
2017-07-21T13:36:44.295Z,44.7
2017-07-21T13:39:13.641Z,46.5
2017-07-21T13:40:21.137Z,43.8
2017-07-21T13:41:28.671Z,44.9
2017-07-21T13:42:36.155Z,46.3
2017-07-21T13:43:43.896Z,42.9
2017-07-21T13:44:52.208Z,43.5
2017-07-21T13:45:59.703Z,45.7
2017-07-21T13:47:07.202Z,42.3
2017-07-21T13:48:14.372Z,43.3
2017-07-21T13:49:21.872Z,44.6
2017-07-21T13:50:29.372Z,41.7
2017-07-21T13:51:36.865Z,46.6
2017-07-21T13:52:44.366Z,47.3
2017-07-21T13:53:51.868Z,43.8
2017-07-21T13:54:59.671Z,42.9
2017-07-21T13:56:07.168Z,39
2017-07-21T13:57:14.334Z,40.3
2017-07-21T13:58:21.831Z,46.1
2017-07-21T13:59:29.001Z,42.5
2017-07-21T14:00:36.802Z,40.6
2017-07-21T14:01:44.287Z,42.5
2017-07-21T14:02:51.794Z,43.6
2017-07-21T14:03:58.964Z,43.2
2017-07-21T14:05:06.478Z,46
2017-07-21T14:06:13.941Z,45.6
2017-07-21T14:07:21.435Z,46.1
2017-07-21T14:08:28.925Z,48.4
2017-07-21T14:09:36.416Z,47.5
2017-07-21T14:10:43.910Z,46.8
2017-07-21T14:11:51.408Z,45.4
2017-07-21T14:12:58.906Z,48.2
2017-07-21T14:14:06.393Z,47.5
2017-07-21T14:15:13.564Z,48.3
2017-07-21T14:16:21.367Z,47.6
2017-07-21T14:17:28.860Z,46.4
2017-07-21T14:18:36.357Z,44.9
2017-07-21T14:19:43.565Z,44
2017-07-21T14:20:51.333Z,48.3
2017-07-21T14:21:59.137Z,45.8
2017-07-21T14:23:06.640Z,48.9
2017-07-21T14:24:14.134Z,48
2017-07-21T14:25:21.625Z,50
2017-07-21T14:26:29.133Z,48.6
2017-07-21T14:27:36.943Z,50.8
2017-07-21T14:28:44.434Z,51.6
2017-07-21T14:29:51.923Z,52.3
2017-07-21T14:31:00.226Z,51.2
2017-07-21T14:32:07.726Z,51.2
2017-07-21T14:33:15.521Z,50.6
2017-07-21T14:34:22.362Z,50.6
2017-07-21T14:35:29.533Z,50.5
2017-07-21T14:36:37.026Z,51.8
2017-07-21T14:37:44.525Z,48.8
2017-07-21T14:38:51.692Z,50.1
2017-07-21T14:39:58.850Z,50.4
2017-07-21T14:41:06.346Z,49.4
2017-07-21T14:42:13.844Z,50.6
2017-07-21T14:43:21.635Z,49.6
2017-07-21T14:44:28.808Z,50.2
2017-07-21T14:45:35.982Z,52.1
2017-07-21T14:46:43.138Z,53.6
2017-07-21T14:47:50.299Z,54.1
2017-07-21T14:48:58.091Z,54.6
2017-07-21T14:50:05.612Z,51.6
2017-07-21T14:51:13.115Z,53.6
2017-07-21T14:52:20.605Z,48.6
2017-07-21T14:53:27.767Z,46.9
2017-07-21T14:54:35.565Z,52.7
2017-07-21T14:55:43.056Z,51.7
2017-07-21T14:56:50.547Z,46.7
2017-07-21T14:57:58.046Z,46.4
2017-07-21T14:59:05.537Z,42
2017-07-21T15:00:13.335Z,46
2017-07-21T15:01:20.820Z,45
2017-07-21T15:02:28.315Z,45.5
2017-07-21T15:03:35.806Z,41.1
2017-07-21T15:04:43.299Z,44
2017-07-21T15:05:50.469Z,40.3
2017-07-21T15:06:57.631Z,42.9
2017-07-21T15:08:05.126Z,41.5